Terminal Aerodrome Forecast
Issued by NWS

Home | Current Version | Previous Version | Text Only | Print | Product List | Glossary On
Versions: 1 2 3 4 5 6 7 8 9 10 11
751
FTUS44 KLIX 081737
TAFGPT
TAF
KGPT 081737Z 0818/0918 31019G27KT P6SM SKC
     FM090100 30012KT P6SM FEW080
     FM091500 31017KT P6SM SKC=

USA.gov is the U.S. government's official web portal to all federal, state and local government web resources and services.